Time;durP1;ratioP1;P1;durP2;ratioP2;P2;SDS_P1;SDS_P2;PMS_P1;PMS_P2;Temp;Humidity;BMP_temperature;BMP_pressure;BME280_temperature;BME280_humidity;BME280_pressure;Samples;Min_cycle;Max_cycle;Signal;HPM_P1;HPM_P2
2021/11/01 00:00:19;;;;;;;79.25;51.42;;;6.60;99.90;;;;;;5075875;28;20045;-93
2021/11/01 00:02:46;;;;;;;93.53;54.47;;;6.50;99.90;;;;;;5075943;28;20425;-93
2021/11/01 00:05:13;;;;;;;78.68;51.40;;;6.50;99.90;;;;;;5075792;28;20063;-93
2021/11/01 00:07:38;;;;;;;82.25;48.90;;;6.50;99.90;;;;;;5075655;28;20028;-92
2021/11/01 00:10:05;;;;;;;89.28;55.40;;;6.50;99.90;;;;;;5075633;28;20025;-94
2021/11/01 00:12:32;;;;;;;80.57;50.55;;;6.50;99.90;;;;;;5075708;28;20052;-93
2021/11/01 00:14:58;;;;;;;91.43;54.58;;;6.50;99.90;;;;;;5075766;28;20054;-93
2021/11/01 00:17:25;;;;;;;89.32;51.53;;;6.50;99.90;;;;;;5075689;28;20052;-92
2021/11/01 00:19:52;;;;;;;83.03;54.55;;;6.40;99.90;;;;;;5075426;28;20463;-92
2021/11/01 00:22:20;;;;;;;84.18;50.78;;;6.40;99.90;;;;;;5075535;28;20032;-93
2021/11/01 00:24:46;;;;;;;76.75;48.65;;;6.40;99.90;;;;;;5075423;28;20025;-93
2021/11/01 00:27:13;;;;;;;79.20;49.20;;;6.40;99.90;;;;;;5075395;28;20387;-93
2021/11/01 00:29:39;;;;;;;80.50;48.50;;;6.40;99.90;;;;;;5075221;28;20060;-93
2021/11/01 00:32:05;;;;;;;78.65;47.17;;;6.40;99.90;;;;;;5075299;28;20086;-93
2021/11/01 00:34:31;;;;;;;79.38;48.53;;;6.40;99.90;;;;;;5078481;28;20105;-92
2021/11/01 00:36:56;;;;;;;81.63;49.45;;;6.40;99.90;;;;;;5098969;28;20051;-93
2021/11/01 00:39:23;;;;;;;78.20;48.08;;;6.30;99.90;;;;;;5098995;28;20031;-93
2021/11/01 00:41:49;;;;;;;80.45;49.83;;;6.30;99.90;;;;;;5098659;28;20019;-93
2021/11/01 00:44:14;;;;;;;80.45;48.83;;;6.30;99.90;;;;;;5098679;28;20020;-92
2021/11/01 00:46:40;;;;;;;82.97;48.15;;;6.20;99.90;;;;;;5098491;28;20023;-92
2021/11/01 00:49:06;;;;;;;77.18;47.22;;;6.20;99.90;;;;;;5098407;28;20031;-92
2021/11/01 00:51:37;;;;;;;81.78;48.50;;;6.10;99.90;;;;;;5098446;28;20023;-93
2021/11/01 00:54:03;;;;;;;82.47;49.33;;;6.10;99.90;;;;;;5098449;28;20031;-93
2021/11/01 00:56:29;;;;;;;73.63;45.97;;;6.00;99.90;;;;;;5098293;28;20028;-93
2021/11/01 00:58:55;;;;;;;80.35;45.22;;;6.00;99.90;;;;;;5098250;28;20026;-93
2021/11/01 01:01:21;;;;;;;76.55;47.15;;;5.90;99.90;;;;;;5098086;28;20023;-93
2021/11/01 01:03:46;;;;;;;71.35;45.90;;;5.80;99.90;;;;;;5098397;28;20030;-92
2021/11/01 01:06:13;;;;;;;79.15;45.70;;;5.80;99.90;;;;;;5098328;28;20019;-93
2021/11/01 01:08:39;;;;;;;79.65;46.33;;;5.80;99.90;;;;;;5098026;28;20050;-93
2021/11/01 01:11:04;;;;;;;78.18;45.70;;;5.70;99.90;;;;;;5098084;28;20024;-93
2021/11/01 01:13:35;;;;;;;76.93;44.17;;;5.70;99.90;;;;;;5097889;28;20031;-93
2021/11/01 01:16:10;;;;;;;77.13;45.90;;;5.70;99.90;;;;;;5098036;28;20106;-93
2021/11/01 01:18:38;;;;;;;78.75;44.58;;;5.50;99.90;;;;;;5097945;28;20019;-92
2021/11/01 01:23:50;;;;;;;71.68;44.80;;;5.50;99.90;;;;;;5116436;28;20030;-93
2021/11/01 01:26:16;;;;;;;83.00;47.65;;;5.40;99.90;;;;;;5098054;28;20023;-93
2021/11/01 01:28:43;;;;;;;79.55;47.03;;;5.40;99.90;;;;;;5097960;28;20024;-93
2021/11/01 01:31:10;;;;;;;77.30;49.15;;;5.40;99.90;;;;;;5097764;28;20423;-92
2021/11/01 01:33:37;;;;;;;82.32;49.92;;;5.50;99.90;;;;;;5097646;28;20052;-93
2021/11/01 01:36:04;;;;;;;76.88;47.78;;;5.50;99.90;;;;;;5097499;28;20078;-93
2021/11/01 01:38:29;;;;;;;85.53;50.38;;;5.60;99.90;;;;;;5097589;28;20019;-92
2021/11/01 01:40:56;;;;;;;87.03;53.53;;;5.60;99.90;;;;;;5097609;28;20027;-94
2021/11/01 01:43:23;;;;;;;90.03;54.47;;;5.70;99.90;;;;;;5097562;28;20020;-93
2021/11/01 01:45:49;;;;;;;82.25;51.53;;;5.70;99.90;;;;;;5096892;28;20085;-93
2021/11/01 01:48:14;;;;;;;83.07;52.03;;;5.80;99.90;;;;;;5097463;28;20023;-93
2021/11/01 01:50:41;;;;;;;98.45;60.05;;;5.80;99.90;;;;;;5097661;28;20076;-93
2021/11/01 01:53:07;;;;;;;91.38;54.90;;;5.80;99.90;;;;;;5097340;28;20023;-92
2021/11/01 01:55:36;;;;;;;87.68;55.35;;;5.90;99.90;;;;;;5097219;28;20114;-93
2021/11/01 01:58:03;;;;;;;94.03;56.63;;;5.90;99.90;;;;;;5097242;28;20026;-93
2021/11/01 02:03:00;;;;;;;89.70;56.90;;;6.00;99.90;;;;;;5115248;28;20020;-93
2021/11/01 02:05:37;;;;;;;88.68;55.45;;;6.00;99.90;;;;;;5097021;28;20469;-92
2021/11/01 02:08:06;;;;;;;92.60;55.05;;;6.00;99.90;;;;;;5097078;28;20031;-93
2021/11/01 02:10:41;;;;;;;85.15;53.17;;;6.00;99.90;;;;;;5097107;28;20102;-93
2021/11/01 02:13:16;;;;;;;86.18;54.88;;;6.00;99.90;;;;;;5097260;28;20363;-93
2021/11/01 02:15:50;;;;;;;94.45;55.72;;;6.00;99.90;;;;;;5096966;28;20367;-93
2021/11/01 02:18:18;;;;;;;90.72;55.08;;;6.00;99.90;;;;;;5096898;28;20092;-93
2021/11/01 02:21:02;;;;;;;85.38;51.40;;;6.00;99.90;;;;;;5096921;28;20470;-93
2021/11/01 02:24:02;;;;;;;89.90;54.05;;;5.90;99.90;;;;;;5096898;28;20035;-94
2021/11/01 02:26:29;;;;;;;85.75;53.40;;;5.80;99.90;;;;;;5013039;28;20028;-93
2021/11/01 02:28:55;;;;;;;86.35;53.42;;;5.70;99.90;;;;;;5096905;28;20107;-93
2021/11/01 02:31:21;;;;;;;85.25;51.20;;;5.70;99.90;;;;;;5096776;28;20051;-94
2021/11/01 02:33:48;;;;;;;84.95;52.40;;;5.70;99.90;;;;;;5097618;28;20070;-94
2021/11/01 02:36:15;;;;;;;86.43;53.13;;;5.60;99.90;;;;;;5077102;28;20045;-93
2021/11/01 02:38:41;;;;;;;78.10;50.03;;;5.50;99.90;;;;;;5073568;28;20047;-93
2021/11/01 02:41:18;;;;;;;83.57;50.47;;;5.50;99.90;;;;;;5073910;28;20025;-93
2021/11/01 02:43:58;;;;;;;88.03;53.92;;;5.40;99.90;;;;;;5073337;28;20046;-93
2021/11/01 02:46:25;;;;;;;84.15;52.63;;;5.30;99.90;;;;;;5073105;28;20035;-93
2021/11/01 02:48:52;;;;;;;114.35;72.60;;;5.20;99.90;;;;;;5072966;28;20029;-93
2021/11/01 02:51:20;;;;;;;110.18;67.35;;;5.20;99.90;;;;;;5073101;28;20024;-92
2021/11/01 02:53:47;;;;;;;104.72;65.75;;;5.20;99.90;;;;;;5073517;28;20459;-93
2021/11/01 02:56:13;;;;;;;105.20;67.07;;;5.20;99.90;;;;;;5072901;28;20390;-93
2021/11/01 02:58:40;;;;;;;109.25;67.85;;;5.20;99.90;;;;;;5077090;28;20131;-93
2021/11/01 03:01:14;;;;;;;98.18;61.13;;;5.20;99.90;;;;;;5077278;28;20464;-92
2021/11/01 03:03:42;;;;;;;91.13;59.40;;;5.30;99.90;;;;;;5077014;28;20024;-93
2021/11/01 03:06:08;;;;;;;87.45;55.50;;;5.30;99.90;;;;;;5076993;28;20020;-93
2021/11/01 03:08:36;;;;;;;100.75;61.95;;;5.40;99.90;;;;;;5076655;28;20090;-93
2021/11/01 03:11:02;;;;;;;92.95;60.72;;;5.40;99.90;;;;;;5076788;28;20035;-93
2021/11/01 03:13:31;;;;;;;106.47;67.43;;;5.40;99.90;;;;;;5076671;28;20036;-93
2021/11/01 03:15:58;;;;;;;111.82;74.55;;;5.40;99.90;;;;;;5076741;28;20078;-92
2021/11/01 03:18:30;;;;;;;123.82;81.97;;;5.40;99.90;;;;;;5076626;28;20123;-93
2021/11/01 03:20:58;;;;;;;119.43;77.72;;;5.50;99.90;;;;;;5076582;28;20063;-92
2021/11/01 03:23:33;;;;;;;102.72;68.40;;;5.50;99.90;;;;;;5076669;28;20135;-93
2021/11/01 03:26:02;;;;;;;98.47;66.30;;;5.60;99.90;;;;;;5076791;28;20082;-93
2021/11/01 03:28:29;;;;;;;104.83;66.80;;;5.60;99.90;;;;;;5076467;28;20050;-93
2021/11/01 03:30:57;;;;;;;87.22;57.63;;;5.70;99.90;;;;;;5076523;28;20028;-93
2021/11/01 03:33:24;;;;;;;83.05;56.45;;;5.80;99.90;;;;;;5077238;28;20043;-94
2021/11/01 03:35:51;;;;;;;89.75;58.40;;;5.80;99.90;;;;;;5076082;28;20482;-93
2021/11/01 03:38:18;;;;;;;88.10;57.90;;;5.80;99.90;;;;;;5076275;28;20035;-93
2021/11/01 03:40:47;;;;;;;89.70;59.22;;;5.80;99.90;;;;;;5077109;28;20024;-93
2021/11/01 03:43:21;;;;;;;86.30;57.17;;;5.80;99.90;;;;;;5076157;28;20021;-93
2021/11/01 03:45:47;;;;;;;86.10;56.33;;;5.80;99.90;;;;;;5077049;28;20031;-93
2021/11/01 03:48:16;;;;;;;81.03;54.33;;;5.80;99.90;;;;;;5076203;28;20024;-94
2021/11/01 03:50:47;;;;;;;90.90;57.03;;;5.80;99.90;;;;;;5076200;28;20082;-95
2021/11/01 03:53:13;;;;;;;85.43;55.75;;;5.90;99.90;;;;;;5076012;28;20048;-94
2021/11/01 03:55:39;;;;;;;83.05;54.60;;;5.90;99.90;;;;;;5075946;28;20060;-93
2021/11/01 03:58:06;;;;;;;88.22;57.60;;;5.90;99.90;;;;;;5075970;28;20123;-93
2021/11/01 04:00:34;;;;;;;87.53;58.00;;;5.90;99.90;;;;;;5075915;28;20021;-93
2021/11/01 04:03:01;;;;;;;83.43;56.60;;;5.80;99.90;;;;;;5075878;28;20024;-93
2021/11/01 04:05:27;;;;;;;85.75;54.03;;;5.90;99.90;;;;;;5075616;28;20031;-93
2021/11/01 04:07:53;;;;;;;85.03;56.83;;;5.90;99.90;;;;;;5075395;28;20467;-94
2021/11/01 04:10:19;;;;;;;79.30;52.95;;;5.80;99.90;;;;;;5075640;28;20119;-93
2021/11/01 04:12:46;;;;;;;85.22;55.53;;;5.90;99.90;;;;;;5076235;28;20505;-93
2021/11/01 04:15:18;;;;;;;88.57;60.78;;;5.90;99.90;;;;;;5075563;28;20021;-89
2021/11/01 04:17:50;;;;;;;84.72;55.08;;;5.80;99.90;;;;;;5076053;28;20028;-92
2021/11/01 04:22:43;;;;;;;95.80;56.45;;;5.90;99.90;;;;;;5076928;28;20485;-90
2021/11/01 04:25:09;;;;;;;87.03;55.45;;;5.90;99.90;;;;;;5075223;28;20067;-89
2021/11/01 04:27:36;;;;;;;86.88;56.30;;;5.90;99.90;;;;;;5075398;28;20029;-89
2021/11/01 04:30:08;;;;;;;95.63;61.92;;;6.00;99.90;;;;;;5073441;28;20387;-90
2021/11/01 04:35:07;;;;;;;84.45;57.42;;;6.00;99.90;;;;;;5067603;28;20143;-90
2021/11/01 04:37:34;;;;;;;94.97;61.38;;;6.00;99.90;;;;;;5096611;28;20463;-90
2021/11/01 15:34:16;;;;;;;60.08;36.88;;;7.20;99.90;;;;;;5112204;28;20417;-91
2021/11/01 16:17:56;;;;;;;78.70;44.45;;;7.60;99.90;;;;;;5090921;28;20042;-92
2021/11/01 16:20:22;;;;;;;83.90;47.83;;;7.70;99.90;;;;;;5098952;28;20023;-91
2021/11/01 16:22:52;;;;;;;80.68;45.10;;;7.70;99.90;;;;;;5100783;28;20131;-92
2021/11/01 16:25:18;;;;;;;81.45;45.45;;;7.80;99.90;;;;;;5108385;28;20024;-91
2021/11/01 16:27:47;;;;;;;86.63;47.97;;;7.80;99.90;;;;;;5109722;28;20024;-91
2021/11/01 16:30:19;;;;;;;83.25;48.42;;;7.80;99.90;;;;;;5109834;28;20026;-91
2021/11/01 16:32:47;;;;;;;86.47;49.08;;;7.80;99.90;;;;;;5106645;28;20024;-92
2021/11/01 16:35:21;;;;;;;81.30;48.10;;;7.80;99.90;;;;;;5077890;28;20029;-92
2021/11/01 16:38:19;;;;;;;84.00;47.13;;;7.90;99.90;;;;;;5075666;28;20128;-91
2021/11/01 16:40:45;;;;;;;77.95;45.90;;;7.90;99.90;;;;;;5075596;28;20108;-91
2021/11/01 16:43:18;;;;;;;87.50;48.58;;;7.90;99.90;;;;;;5075748;28;20036;-91
2021/11/01 16:45:47;;;;;;;83.95;49.55;;;7.90;99.90;;;;;;5075872;28;20024;-91
2021/11/01 16:48:13;;;;;;;89.47;51.33;;;7.90;99.90;;;;;;5075894;28;20459;-92
2021/11/01 16:50:39;;;;;;;84.85;49.75;;;7.90;99.90;;;;;;5095717;28;20031;-90
2021/11/01 16:53:06;;;;;;;81.38;47.63;;;7.90;99.90;;;;;;5095919;28;20028;-92
2021/11/01 16:55:39;;;;;;;81.65;49.60;;;7.90;99.90;;;;;;5095589;28;20088;-91
2021/11/01 17:00:51;;;;;;;84.68;48.38;;;7.90;99.90;;;;;;5076489;28;20013;-91
2021/11/01 17:22:26;;;;;;;84.15;46.63;;;7.90;99.90;;;;;;5096000;28;20110;-92
2021/11/01 17:25:17;;;;;;;79.97;44.65;;;7.90;99.90;;;;;;5095355;28;20023;-92
2021/11/01 18:39:40;;;;;;;69.30;42.13;;;8.30;99.90;;;;;;5090927;28;20501;-91
2021/11/01 18:42:19;;;;;;;66.65;41.92;;;8.30;99.90;;;;;;5091695;28;20539;-91
2021/11/01 18:52:58;;;;;;;75.57;45.73;;;8.20;99.90;;;;;;5095520;28;20431;-91
2021/11/01 18:55:24;;;;;;;70.72;43.30;;;8.10;99.90;;;;;;5093838;28;20044;-91
2021/11/01 18:57:52;;;;;;;76.30;43.20;;;8.10;99.90;;;;;;5093297;28;20027;-91
2021/11/01 19:00:19;;;;;;;71.68;42.88;;;8.10;99.90;;;;;;5093569;28;20023;-90
2021/11/01 19:02:48;;;;;;;71.47;43.67;;;8.10;99.90;;;;;;5094829;28;20020;-91
2021/11/01 20:05:37;;;;;;;80.70;48.22;;;8.40;99.90;;;;;;5094230;28;20024;-90
2021/11/01 20:16:20;;;;;;;73.97;43.75;;;8.60;99.90;;;;;;5077366;28;20043;-91
2021/11/01 21:25:49;;;;;;;76.88;45.47;;;8.90;99.90;;;;;;5096921;28;20061;-91
2021/11/01 21:28:15;;;;;;;77.97;44.17;;;8.90;99.90;;;;;;5096725;28;20102;-90
2021/11/01 21:30:41;;;;;;;82.93;50.10;;;8.90;99.90;;;;;;5095209;28;20074;-90
2021/11/01 21:33:07;;;;;;;89.93;52.05;;;8.90;99.90;;;;;;5095266;28;20025;-91
2021/11/01 21:35:41;;;;;;;83.55;49.53;;;8.90;99.90;;;;;;5095019;28;20031;-90
2021/11/01 21:38:07;;;;;;;92.93;54.20;;;8.90;99.90;;;;;;5095154;28;20028;-90
2021/11/01 21:40:33;;;;;;;92.82;53.78;;;8.90;99.90;;;;;;5095094;28;20504;-91
2021/11/01 21:42:58;;;;;;;92.85;55.08;;;8.90;99.90;;;;;;5094865;28;20120;-91
2021/11/01 21:45:24;;;;;;;93.70;52.15;;;8.90;99.90;;;;;;5095073;28;20024;-90
2021/11/01 21:47:50;;;;;;;81.63;49.85;;;8.90;99.90;;;;;;5094866;28;20103;-90
2021/11/01 21:50:16;;;;;;;86.97;50.03;;;8.80;99.90;;;;;;5094974;28;20097;-90
2021/11/01 21:52:43;;;;;;;98.50;55.20;;;8.80;99.90;;;;;;5095055;28;20043;-90
2021/11/01 21:55:10;;;;;;;90.07;53.67;;;8.80;99.90;;;;;;5094965;28;20027;-90
2021/11/01 21:57:41;;;;;;;98.75;57.38;;;8.70;99.90;;;;;;5094859;28;20478;-90
2021/11/01 22:00:22;;;;;;;94.93;53.28;;;8.60;99.90;;;;;;5094801;28;20047;-90
2021/11/01 22:21:35;;;;;;;97.05;58.90;;;8.50;99.90;;;;;;5095182;28;20044;-89
2021/11/01 22:24:12;;;;;;;89.03;51.38;;;8.40;99.90;;;;;;5094473;28;20049;-90
2021/11/01 22:27:09;;;;;;;94.18;52.85;;;8.50;99.90;;;;;;5094321;28;20020;-90
2021/11/01 22:58:42;;;;;;;99.50;60.75;;;8.50;99.90;;;;;;5074450;28;20016;-90
2021/11/01 23:01:36;;;;;;;99.97;60.47;;;8.40;99.90;;;;;;5073559;28;20029;-90
2021/11/01 23:33:32;;;;;;;90.20;57.33;;;8.40;99.90;;;;;;5074541;28;20055;-89
2021/11/01 23:35:58;;;;;;;89.68;55.20;;;8.40;99.90;;;;;;5073338;28;20036;-89
2021/11/01 23:38:24;;;;;;;99.28;58.30;;;8.40;99.90;;;;;;5073380;28;20029;-89
2021/11/01 23:40:51;;;;;;;97.05;57.22;;;8.40;99.90;;;;;;5072921;28;20035;-90
2021/11/01 23:43:16;;;;;;;86.55;55.13;;;8.40;99.90;;;;;;5073932;28;20391;-89
2021/11/01 23:45:44;;;;;;;96.13;58.80;;;8.50;99.90;;;;;;5077445;28;20020;-90
2021/11/01 23:48:12;;;;;;;92.97;57.28;;;8.40;99.90;;;;;;5077102;28;20024;-90
2021/11/01 23:50:38;;;;;;;90.00;56.47;;;8.50;99.90;;;;;;5077000;28;20387;-90
2021/11/01 23:53:14;;;;;;;93.40;58.08;;;8.50;99.90;;;;;;5077040;28;20029;-90
2021/11/01 23:55:41;;;;;;;93.28;55.17;;;8.50;99.90;;;;;;5076979;28;20031;-91
2021/11/01 23:58:07;;;;;;;96.93;59.50;;;8.50;99.90;;;;;;5077894;28;20024;-91
